sensor_id;sensor_type;location;lat;lon;timestamp;temperature;humidity
53904;DHT22;39812;52.430;16.936;2022-11-11T00:01:11;10.20;99.90
53904;DHT22;39812;52.430;16.936;2022-11-11T00:03:37;10.20;99.90
53904;DHT22;39812;52.430;16.936;2022-11-11T00:06:05;10.20;99.90
53904;DHT22;39812;52.430;16.936;2022-11-11T00:08:31;10.20;99.90
53904;DHT22;39812;52.430;16.936;2022-11-11T00:11:04;10.20;99.90
53904;DHT22;39812;52.430;16.936;2022-11-11T00:13:30;10.20;99.90
53904;DHT22;39812;52.430;16.936;2022-11-11T00:15:56;10.20;99.90
53904;DHT22;39812;52.430;16.936;2022-11-11T00:18:27;10.20;99.90
53904;DHT22;39812;52.430;16.936;2022-11-11T00:21:14;10.20;99.90
53904;DHT22;39812;52.430;16.936;2022-11-11T00:23:59;10.20;99.90
53904;DHT22;39812;52.430;16.936;2022-11-11T00:26:43;10.20;99.90
53904;DHT22;39812;52.430;16.936;2022-11-11T00:29:09;10.20;99.90
53904;DHT22;39812;52.430;16.936;2022-11-11T00:31:35;10.20;99.90
53904;DHT22;39812;52.430;16.936;2022-11-11T00:34:00;10.10;99.90
53904;DHT22;39812;52.430;16.936;2022-11-11T00:36:26;10.10;99.90
53904;DHT22;39812;52.430;16.936;2022-11-11T00:38:51;10.10;99.90
53904;DHT22;39812;52.430;16.936;2022-11-11T00:41:21;10.10;99.90
53904;DHT22;39812;52.430;16.936;2022-11-11T00:43:47;10.10;99.90
53904;DHT22;39812;52.430;16.936;2022-11-11T00:46:14;10.10;99.90
53904;DHT22;39812;52.430;16.936;2022-11-11T00:48:58;10.10;99.90
53904;DHT22;39812;52.430;16.936;2022-11-11T00:51:56;10.10;99.90
53904;DHT22;39812;52.430;16.936;2022-11-11T00:54:22;10.10;99.90
53904;DHT22;39812;52.430;16.936;2022-11-11T00:56:47;10.00;99.90
53904;DHT22;39812;52.430;16.936;2022-11-11T00:59:13;10.00;99.90
53904;DHT22;39812;52.430;16.936;2022-11-11T01:01:38;10.00;99.90
53904;DHT22;39812;52.430;16.936;2022-11-11T01:04:04;10.00;99.90
53904;DHT22;39812;52.430;16.936;2022-11-11T01:06:29;10.00;99.90
53904;DHT22;39812;52.430;16.936;2022-11-11T01:08:55;10.00;99.90
53904;DHT22;39812;52.430;16.936;2022-11-11T01:11:22;10.00;99.90
53904;DHT22;39812;52.430;16.936;2022-11-11T01:13:48;10.00;99.90
53904;DHT22;39812;52.430;16.936;2022-11-11T01:16:25;9.90;99.90
53904;DHT22;39812;52.430;16.936;2022-11-11T01:18:51;9.90;99.90
53904;DHT22;39812;52.430;16.936;2022-11-11T01:21:19;10.00;99.90
53904;DHT22;39812;52.430;16.936;2022-11-11T01:23:46;9.90;99.90
53904;DHT22;39812;52.430;16.936;2022-11-11T01:26:25;10.00;99.90
53904;DHT22;39812;52.430;16.936;2022-11-11T01:28:52;9.90;99.90
53904;DHT22;39812;52.430;16.936;2022-11-11T01:31:19;9.90;99.90
53904;DHT22;39812;52.430;16.936;2022-11-11T01:33:46;9.90;99.90
53904;DHT22;39812;52.430;16.936;2022-11-11T01:36:14;9.90;99.90
53904;DHT22;39812;52.430;16.936;2022-11-11T01:38:41;9.90;99.90
53904;DHT22;39812;52.430;16.936;2022-11-11T01:41:13;9.90;99.90
53904;DHT22;39812;52.430;16.936;2022-11-11T01:43:58;9.90;99.90
53904;DHT22;39812;52.430;16.936;2022-11-11T01:46:32;10.00;99.90
53904;DHT22;39812;52.430;16.936;2022-11-11T01:49:14;9.90;99.90
53904;DHT22;39812;52.430;16.936;2022-11-11T01:54:23;9.90;99.90
53904;DHT22;39812;52.430;16.936;2022-11-11T01:56:56;9.90;99.90
53904;DHT22;39812;52.430;16.936;2022-11-11T01:59:23;9.90;99.90
53904;DHT22;39812;52.430;16.936;2022-11-11T02:01:49;10.00;99.90
53904;DHT22;39812;52.430;16.936;2022-11-11T02:04:15;9.90;99.90
53904;DHT22;39812;52.430;16.936;2022-11-11T02:07:03;10.00;99.90
53904;DHT22;39812;52.430;16.936;2022-11-11T02:09:31;10.00;99.90
53904;DHT22;39812;52.430;16.936;2022-11-11T02:11:59;9.90;99.90
53904;DHT22;39812;52.430;16.936;2022-11-11T02:14:51;9.90;99.90
53904;DHT22;39812;52.430;16.936;2022-11-11T02:17:17;9.90;99.90
53904;DHT22;39812;52.430;16.936;2022-11-11T02:20:02;9.90;99.90
53904;DHT22;39812;52.430;16.936;2022-11-11T02:22:43;9.80;99.90
53904;DHT22;39812;52.430;16.936;2022-11-11T02:25:24;9.80;99.90
53904;DHT22;39812;52.430;16.936;2022-11-11T02:27:52;9.70;99.90
53904;DHT22;39812;52.430;16.936;2022-11-11T02:30:21;9.60;99.90
53904;DHT22;39812;52.430;16.936;2022-11-11T02:32:48;9.60;99.90
53904;DHT22;39812;52.430;16.936;2022-11-11T02:35:17;9.50;99.90
53904;DHT22;39812;52.430;16.936;2022-11-11T02:37:50;9.40;99.90
53904;DHT22;39812;52.430;16.936;2022-11-11T02:40:39;9.40;99.90
53904;DHT22;39812;52.430;16.936;2022-11-11T02:43:26;9.40;99.90
53904;DHT22;39812;52.430;16.936;2022-11-11T02:45:51;9.50;99.90
53904;DHT22;39812;52.430;16.936;2022-11-11T02:48:17;9.50;99.90
53904;DHT22;39812;52.430;16.936;2022-11-11T02:50:42;9.50;99.90
53904;DHT22;39812;52.430;16.936;2022-11-11T02:53:08;9.50;99.90
53904;DHT22;39812;52.430;16.936;2022-11-11T02:55:33;9.50;99.90
53904;DHT22;39812;52.430;16.936;2022-11-11T02:57:59;9.50;99.90
53904;DHT22;39812;52.430;16.936;2022-11-11T03:00:25;9.40;99.90
53904;DHT22;39812;52.430;16.936;2022-11-11T03:02:50;9.40;99.90
53904;DHT22;39812;52.430;16.936;2022-11-11T03:05:16;9.40;99.90
53904;DHT22;39812;52.430;16.936;2022-11-11T03:07:41;9.40;99.90
53904;DHT22;39812;52.430;16.936;2022-11-11T03:10:07;9.30;99.90
53904;DHT22;39812;52.430;16.936;2022-11-11T03:12:33;9.30;99.90
53904;DHT22;39812;52.430;16.936;2022-11-11T03:14:58;9.30;99.90
53904;DHT22;39812;52.430;16.936;2022-11-11T03:17:23;9.30;99.90
53904;DHT22;39812;52.430;16.936;2022-11-11T03:20:09;9.30;99.90
53904;DHT22;39812;52.430;16.936;2022-11-11T03:23:13;9.20;99.90
53904;DHT22;39812;52.430;16.936;2022-11-11T03:25:44;9.20;99.90
53904;DHT22;39812;52.430;16.936;2022-11-11T03:28:18;9.10;99.90
53904;DHT22;39812;52.430;16.936;2022-11-11T03:30:46;9.00;99.90
53904;DHT22;39812;52.430;16.936;2022-11-11T03:33:12;9.00;99.90
53904;DHT22;39812;52.430;16.936;2022-11-11T03:35:39;9.00;99.90
53904;DHT22;39812;52.430;16.936;2022-11-11T03:38:06;8.90;99.90
53904;DHT22;39812;52.430;16.936;2022-11-11T03:40:48;8.90;99.90
53904;DHT22;39812;52.430;16.936;2022-11-11T03:43:16;8.90;99.90
53904;DHT22;39812;52.430;16.936;2022-11-11T03:45:43;8.80;99.90
53904;DHT22;39812;52.430;16.936;2022-11-11T03:48:09;8.80;99.90
53904;DHT22;39812;52.430;16.936;2022-11-11T03:50:34;8.70;99.90
53904;DHT22;39812;52.430;16.936;2022-11-11T03:53:00;8.70;99.90
53904;DHT22;39812;52.430;16.936;2022-11-11T03:55:26;8.60;99.90
53904;DHT22;39812;52.430;16.936;2022-11-11T03:57:52;8.60;99.90
53904;DHT22;39812;52.430;16.936;2022-11-11T04:00:20;8.60;99.90
53904;DHT22;39812;52.430;16.936;2022-11-11T04:02:46;8.60;99.90
53904;DHT22;39812;52.430;16.936;2022-11-11T04:05:30;8.50;99.90
53904;DHT22;39812;52.430;16.936;2022-11-11T04:08:16;8.50;99.90
53904;DHT22;39812;52.430;16.936;2022-11-11T04:11:11;8.50;99.90
53904;DHT22;39812;52.430;16.936;2022-11-11T04:13:40;8.50;99.90
53904;DHT22;39812;52.430;16.936;2022-11-11T04:16:24;8.40;99.90
53904;DHT22;39812;52.430;16.936;2022-11-11T04:18:50;8.40;99.90
53904;DHT22;39812;52.430;16.936;2022-11-11T04:21:35;8.40;99.90
53904;DHT22;39812;52.430;16.936;2022-11-11T04:24:17;8.40;99.90
53904;DHT22;39812;52.430;16.936;2022-11-11T04:27:07;8.40;99.90
53904;DHT22;39812;52.430;16.936;2022-11-11T04:29:34;8.30;99.90
53904;DHT22;39812;52.430;16.936;2022-11-11T04:32:05;8.30;99.90
53904;DHT22;39812;52.430;16.936;2022-11-11T04:34:57;8.30;99.90
53904;DHT22;39812;52.430;16.936;2022-11-11T04:37:24;8.30;99.90
53904;DHT22;39812;52.430;16.936;2022-11-11T04:39:50;8.30;99.90
53904;DHT22;39812;52.430;16.936;2022-11-11T04:42:34;8.20;99.90
53904;DHT22;39812;52.430;16.936;2022-11-11T04:45:00;8.20;99.90
53904;DHT22;39812;52.430;16.936;2022-11-11T04:47:59;8.10;99.90
53904;DHT22;39812;52.430;16.936;2022-11-11T04:50:30;8.10;99.90
53904;DHT22;39812;52.430;16.936;2022-11-11T04:52:56;8.10;99.90
53904;DHT22;39812;52.430;16.936;2022-11-11T04:55:22;8.10;99.90
53904;DHT22;39812;52.430;16.936;2022-11-11T04:58:06;8.00;99.90
53904;DHT22;39812;52.430;16.936;2022-11-11T05:00:32;8.00;99.90
53904;DHT22;39812;52.430;16.936;2022-11-11T05:02:58;8.00;99.90
53904;DHT22;39812;52.430;16.936;2022-11-11T05:05:48;8.00;99.90
53904;DHT22;39812;52.430;16.936;2022-11-11T05:08:34;8.00;99.90
53904;DHT22;39812;52.430;16.936;2022-11-11T05:11:19;8.00;99.90
53904;DHT22;39812;52.430;16.936;2022-11-11T05:13:46;8.00;99.90
53904;DHT22;39812;52.430;16.936;2022-11-11T05:16:51;8.00;99.90
53904;DHT22;39812;52.430;16.936;2022-11-11T05:19:36;8.00;99.90
53904;DHT22;39812;52.430;16.936;2022-11-11T05:22:30;8.00;99.90
53904;DHT22;39812;52.430;16.936;2022-11-11T05:24:57;7.90;99.90
53904;DHT22;39812;52.430;16.936;2022-11-11T05:27:41;7.90;99.90
53904;DHT22;39812;52.430;16.936;2022-11-11T05:30:08;7.90;99.90
53904;DHT22;39812;52.430;16.936;2022-11-11T05:32:34;7.90;99.90
53904;DHT22;39812;52.430;16.936;2022-11-11T05:35:00;7.80;99.90
53904;DHT22;39812;52.430;16.936;2022-11-11T05:37:25;7.90;99.90
53904;DHT22;39812;52.430;16.936;2022-11-11T05:39:51;7.80;99.90
53904;DHT22;39812;52.430;16.936;2022-11-11T05:42:16;7.80;99.90
53904;DHT22;39812;52.430;16.936;2022-11-11T05:44:42;7.90;99.90
53904;DHT22;39812;52.430;16.936;2022-11-11T05:47:08;7.80;99.90
53904;DHT22;39812;52.430;16.936;2022-11-11T05:49:33;7.80;99.90
53904;DHT22;39812;52.430;16.936;2022-11-11T05:51:59;7.80;99.90
53904;DHT22;39812;52.430;16.936;2022-11-11T05:54:25;7.80;99.90
53904;DHT22;39812;52.430;16.936;2022-11-11T05:56:51;7.70;99.90
53904;DHT22;39812;52.430;16.936;2022-11-11T05:59:16;7.70;99.90
53904;DHT22;39812;52.430;16.936;2022-11-11T06:01:42;7.70;99.90
53904;DHT22;39812;52.430;16.936;2022-11-11T06:04:08;7.70;99.90
53904;DHT22;39812;52.430;16.936;2022-11-11T06:06:34;7.70;99.90
53904;DHT22;39812;52.430;16.936;2022-11-11T06:09:00;7.70;99.90
53904;DHT22;39812;52.430;16.936;2022-11-11T06:11:26;7.60;99.90
53904;DHT22;39812;52.430;16.936;2022-11-11T06:13:55;7.60;99.90
53904;DHT22;39812;52.430;16.936;2022-11-11T06:16:21;7.60;99.90
53904;DHT22;39812;52.430;16.936;2022-11-11T06:18:46;7.60;99.90
53904;DHT22;39812;52.430;16.936;2022-11-11T06:21:12;7.60;99.90
53904;DHT22;39812;52.430;16.936;2022-11-11T06:23:37;7.60;99.90
53904;DHT22;39812;52.430;16.936;2022-11-11T06:26:03;7.60;99.90
53904;DHT22;39812;52.430;16.936;2022-11-11T06:28:49;7.60;99.90
53904;DHT22;39812;52.430;16.936;2022-11-11T06:31:18;7.60;99.90
53904;DHT22;39812;52.430;16.936;2022-11-11T06:33:44;7.60;99.90
53904;DHT22;39812;52.430;16.936;2022-11-11T06:36:11;7.60;99.90
53904;DHT22;39812;52.430;16.936;2022-11-11T06:38:40;7.60;99.90
53904;DHT22;39812;52.430;16.936;2022-11-11T06:41:07;7.70;99.90
53904;DHT22;39812;52.430;16.936;2022-11-11T06:43:32;7.60;99.90
53904;DHT22;39812;52.430;16.936;2022-11-11T06:45:58;7.70;99.90
53904;DHT22;39812;52.430;16.936;2022-11-11T06:48:25;7.60;99.90
53904;DHT22;39812;52.430;16.936;2022-11-11T06:50:51;7.60;99.90
53904;DHT22;39812;52.430;16.936;2022-11-11T06:53:18;7.70;99.90
53904;DHT22;39812;52.430;16.936;2022-11-11T06:55:43;7.70;99.90
53904;DHT22;39812;52.430;16.936;2022-11-11T06:58:11;7.70;99.90
53904;DHT22;39812;52.430;16.936;2022-11-11T07:00:38;7.80;99.90
53904;DHT22;39812;52.430;16.936;2022-11-11T07:03:05;7.80;99.90
53904;DHT22;39812;52.430;16.936;2022-11-11T07:05:32;7.80;99.90
53904;DHT22;39812;52.430;16.936;2022-11-11T07:08:01;7.80;99.90
53904;DHT22;39812;52.430;16.936;2022-11-11T07:10:27;7.80;99.90
53904;DHT22;39812;52.430;16.936;2022-11-11T07:12:53;7.80;99.90
53904;DHT22;39812;52.430;16.936;2022-11-11T07:15:18;7.80;99.90
53904;DHT22;39812;52.430;16.936;2022-11-11T07:17:43;7.80;99.90
53904;DHT22;39812;52.430;16.936;2022-11-11T07:20:09;7.90;99.90
53904;DHT22;39812;52.430;16.936;2022-11-11T07:22:35;7.90;99.90
53904;DHT22;39812;52.430;16.936;2022-11-11T07:25:01;7.90;99.90
53904;DHT22;39812;52.430;16.936;2022-11-11T07:27:27;7.90;99.90
53904;DHT22;39812;52.430;16.936;2022-11-11T07:29:52;7.90;99.90
53904;DHT22;39812;52.430;16.936;2022-11-11T07:32:17;8.00;99.90
53904;DHT22;39812;52.430;16.936;2022-11-11T07:34:43;8.00;99.90
53904;DHT22;39812;52.430;16.936;2022-11-11T07:37:09;8.10;99.90
53904;DHT22;39812;52.430;16.936;2022-11-11T07:39:35;8.10;99.90
53904;DHT22;39812;52.430;16.936;2022-11-11T07:42:00;8.10;99.90
53904;DHT22;39812;52.430;16.936;2022-11-11T07:44:26;8.10;99.90
53904;DHT22;39812;52.430;16.936;2022-11-11T07:46:51;8.20;99.90
53904;DHT22;39812;52.430;16.936;2022-11-11T07:49:17;8.30;99.90
53904;DHT22;39812;52.430;16.936;2022-11-11T07:51:42;8.40;99.90
53904;DHT22;39812;52.430;16.936;2022-11-11T07:54:08;8.40;99.90
53904;DHT22;39812;52.430;16.936;2022-11-11T07:56:34;8.40;99.90
53904;DHT22;39812;52.430;16.936;2022-11-11T07:58:59;8.50;99.90
53904;DHT22;39812;52.430;16.936;2022-11-11T08:01:24;8.50;99.90
53904;DHT22;39812;52.430;16.936;2022-11-11T08:03:50;8.60;99.90
53904;DHT22;39812;52.430;16.936;2022-11-11T08:06:17;8.70;99.90
53904;DHT22;39812;52.430;16.936;2022-11-11T08:08:42;8.70;99.90
53904;DHT22;39812;52.430;16.936;2022-11-11T08:11:08;8.80;99.90
53904;DHT22;39812;52.430;16.936;2022-11-11T08:13:33;8.80;99.90
53904;DHT22;39812;52.430;16.936;2022-11-11T08:16:06;8.80;99.90
53904;DHT22;39812;52.430;16.936;2022-11-11T08:18:32;8.80;99.90
53904;DHT22;39812;52.430;16.936;2022-11-11T08:20:59;8.90;99.90
53904;DHT22;39812;52.430;16.936;2022-11-11T08:23:24;8.90;99.90
53904;DHT22;39812;52.430;16.936;2022-11-11T08:26:01;9.10;99.90
53904;DHT22;39812;52.430;16.936;2022-11-11T08:28:28;9.10;99.90
53904;DHT22;39812;52.430;16.936;2022-11-11T08:30:54;9.10;99.90
53904;DHT22;39812;52.430;16.936;2022-11-11T08:33:20;9.10;99.90
53904;DHT22;39812;52.430;16.936;2022-11-11T08:35:45;9.10;99.90
53904;DHT22;39812;52.430;16.936;2022-11-11T08:38:11;9.20;99.90
53904;DHT22;39812;52.430;16.936;2022-11-11T08:40:37;9.30;99.90
53904;DHT22;39812;52.430;16.936;2022-11-11T08:43:03;9.20;99.90
53904;DHT22;39812;52.430;16.936;2022-11-11T08:45:28;9.20;99.90
53904;DHT22;39812;52.430;16.936;2022-11-11T08:47:54;9.20;99.90
53904;DHT22;39812;52.430;16.936;2022-11-11T08:50:19;9.30;99.90
53904;DHT22;39812;52.430;16.936;2022-11-11T08:52:49;9.30;99.90
53904;DHT22;39812;52.430;16.936;2022-11-11T08:55:15;9.40;99.90
53904;DHT22;39812;52.430;16.936;2022-11-11T08:57:41;9.40;99.90
53904;DHT22;39812;52.430;16.936;2022-11-11T09:00:08;9.50;99.90
53904;DHT22;39812;52.430;16.936;2022-11-11T09:02:33;9.50;99.90
53904;DHT22;39812;52.430;16.936;2022-11-11T09:04:59;9.60;99.90
53904;DHT22;39812;52.430;16.936;2022-11-11T09:07:25;9.60;99.90
53904;DHT22;39812;52.430;16.936;2022-11-11T09:09:50;9.70;99.90
53904;DHT22;39812;52.430;16.936;2022-11-11T09:12:16;9.80;99.90
53904;DHT22;39812;52.430;16.936;2022-11-11T09:14:41;9.70;99.90
53904;DHT22;39812;52.430;16.936;2022-11-11T09:17:07;9.80;99.90
53904;DHT22;39812;52.430;16.936;2022-11-11T09:19:32;9.90;99.90
53904;DHT22;39812;52.430;16.936;2022-11-11T09:21:58;10.00;99.90
53904;DHT22;39812;52.430;16.936;2022-11-11T09:24:24;10.10;99.90
53904;DHT22;39812;52.430;16.936;2022-11-11T09:26:49;10.20;99.90
53904;DHT22;39812;52.430;16.936;2022-11-11T09:29:16;10.10;99.90
53904;DHT22;39812;52.430;16.936;2022-11-11T09:31:42;10.30;99.90
53904;DHT22;39812;52.430;16.936;2022-11-11T09:34:08;10.30;99.90
53904;DHT22;39812;52.430;16.936;2022-11-11T09:36:33;10.30;99.90
53904;DHT22;39812;52.430;16.936;2022-11-11T09:38:59;10.30;99.90
53904;DHT22;39812;52.430;16.936;2022-11-11T09:41:56;10.40;99.90
53904;DHT22;39812;52.430;16.936;2022-11-11T09:47:54;10.20;99.90
53904;DHT22;39812;52.430;16.936;2022-11-11T09:50:27;10.30;99.90
53904;DHT22;39812;52.430;16.936;2022-11-11T09:55:41;10.40;99.90
53904;DHT22;39812;52.430;16.936;2022-11-11T09:58:20;10.50;99.90
53904;DHT22;39812;52.430;16.936;2022-11-11T10:00:50;10.60;99.90
53904;DHT22;39812;52.430;16.936;2022-11-11T10:03:21;10.60;99.90
53904;DHT22;39812;52.430;16.936;2022-11-11T10:06:13;10.70;99.90
53904;DHT22;39812;52.430;16.936;2022-11-11T10:09:10;10.60;99.90
53904;DHT22;39812;52.430;16.936;2022-11-11T10:12:07;10.70;99.90
53904;DHT22;39812;52.430;16.936;2022-11-11T10:14:38;10.80;99.90
53904;DHT22;39812;52.430;16.936;2022-11-11T10:17:30;10.90;99.90
53904;DHT22;39812;52.430;16.936;2022-11-11T10:22:43;11.10;99.90
53904;DHT22;39812;52.430;16.936;2022-11-11T10:27:40;11.10;99.90
53904;DHT22;39812;52.430;16.936;2022-11-11T10:30:17;11.20;99.90
53904;DHT22;39812;52.430;16.936;2022-11-11T10:32:46;11.30;99.90
53904;DHT22;39812;52.430;16.936;2022-11-11T10:35:19;11.20;99.90
53904;DHT22;39812;52.430;16.936;2022-11-11T10:37:45;11.30;99.90
53904;DHT22;39812;52.430;16.936;2022-11-11T10:40:20;11.50;99.90
53904;DHT22;39812;52.430;16.936;2022-11-11T10:42:48;11.50;99.90
53904;DHT22;39812;52.430;16.936;2022-11-11T10:48:03;11.50;99.90
53904;DHT22;39812;52.430;16.936;2022-11-11T10:53:46;11.80;99.90
53904;DHT22;39812;52.430;16.936;2022-11-11T10:59:10;11.90;99.90
53904;DHT22;39812;52.430;16.936;2022-11-11T11:02:28;11.80;99.90
53904;DHT22;39812;52.430;16.936;2022-11-11T11:04:39;11.70;99.90
53904;DHT22;39812;52.430;16.936;2022-11-11T11:07:08;11.70;99.90
53904;DHT22;39812;52.430;16.936;2022-11-11T11:09:47;11.50;99.90
53904;DHT22;39812;52.430;16.936;2022-11-11T11:15:24;11.70;99.90
53904;DHT22;39812;52.430;16.936;2022-11-11T11:18:00;11.60;99.90
53904;DHT22;39812;52.430;16.936;2022-11-11T11:20:27;11.60;99.90
53904;DHT22;39812;52.430;16.936;2022-11-11T11:22:55;11.70;99.90
53904;DHT22;39812;52.430;16.936;2022-11-11T11:25:23;11.60;99.90
53904;DHT22;39812;52.430;16.936;2022-11-11T11:27:50;11.70;99.90
53904;DHT22;39812;52.430;16.936;2022-11-11T11:30:19;11.80;99.90
53904;DHT22;39812;52.430;16.936;2022-11-11T11:37:55;11.80;99.90
53904;DHT22;39812;52.430;16.936;2022-11-11T11:40:21;12.00;99.90
53904;DHT22;39812;52.430;16.936;2022-11-11T11:42:46;12.00;99.90
53904;DHT22;39812;52.430;16.936;2022-11-11T11:45:28;12.00;99.90
53904;DHT22;39812;52.430;16.936;2022-11-11T11:48:13;12.00;99.90
53904;DHT22;39812;52.430;16.936;2022-11-11T11:50:48;12.00;99.90
53904;DHT22;39812;52.430;16.936;2022-11-11T11:53:33;12.10;99.90
53904;DHT22;39812;52.430;16.936;2022-11-11T11:56:34;12.10;99.90
53904;DHT22;39812;52.430;16.936;2022-11-11T11:59:03;12.20;99.90
53904;DHT22;39812;52.430;16.936;2022-11-11T12:01:57;12.10;99.90
53904;DHT22;39812;52.430;16.936;2022-11-11T12:07:14;12.20;99.90
53904;DHT22;39812;52.430;16.936;2022-11-11T12:10:22;12.30;99.90
53904;DHT22;39812;52.430;16.936;2022-11-11T12:13:18;12.20;99.90
53904;DHT22;39812;52.430;16.936;2022-11-11T12:21:33;12.20;99.90
53904;DHT22;39812;52.430;16.936;2022-11-11T12:26:45;12.30;99.90
53904;DHT22;39812;52.430;16.936;2022-11-11T12:29:29;12.30;99.90
53904;DHT22;39812;52.430;16.936;2022-11-11T12:32:27;12.40;99.90
53904;DHT22;39812;52.430;16.936;2022-11-11T12:35:19;12.30;99.90
53904;DHT22;39812;52.430;16.936;2022-11-11T12:38:18;12.30;99.90
53904;DHT22;39812;52.430;16.936;2022-11-11T12:40:56;12.40;99.90
53904;DHT22;39812;52.430;16.936;2022-11-11T12:46:21;12.30;99.90
53904;DHT22;39812;52.430;16.936;2022-11-11T12:52:03;12.00;99.90
53904;DHT22;39812;52.430;16.936;2022-11-11T12:54:59;12.00;99.90
53904;DHT22;39812;52.430;16.936;2022-11-11T13:00:21;12.00;99.90
53904;DHT22;39812;52.430;16.936;2022-11-11T13:03:16;12.00;99.90
53904;DHT22;39812;52.430;16.936;2022-11-11T13:06:17;12.00;99.90
53904;DHT22;39812;52.430;16.936;2022-11-11T13:12:04;12.00;99.90
53904;DHT22;39812;52.430;16.936;2022-11-11T13:17:12;11.90;99.90
53904;DHT22;39812;52.430;16.936;2022-11-11T13:19:52;11.90;99.90
53904;DHT22;39812;52.430;16.936;2022-11-11T13:22:25;11.80;99.90
53904;DHT22;39812;52.430;16.936;2022-11-11T13:24:51;11.80;99.90
53904;DHT22;39812;52.430;16.936;2022-11-11T13:27:38;11.70;99.90
53904;DHT22;39812;52.430;16.936;2022-11-11T13:30:34;11.70;99.90
53904;DHT22;39812;52.430;16.936;2022-11-11T13:33:10;11.70;99.90
53904;DHT22;39812;52.430;16.936;2022-11-11T13:38:08;11.70;99.90
53904;DHT22;39812;52.430;16.936;2022-11-11T13:40:41;11.70;99.90
53904;DHT22;39812;52.430;16.936;2022-11-11T13:43:24;11.60;99.90
53904;DHT22;39812;52.430;16.936;2022-11-11T13:45:54;11.60;99.90
53904;DHT22;39812;52.430;16.936;2022-11-11T13:48:32;11.50;99.90
53904;DHT22;39812;52.430;16.936;2022-11-11T13:51:39;11.50;99.90
53904;DHT22;39812;52.430;16.936;2022-11-11T13:54:21;11.50;99.90
53904;DHT22;39812;52.430;16.936;2022-11-11T13:56:48;11.50;99.90
53904;DHT22;39812;52.430;16.936;2022-11-11T13:59:26;11.40;99.90
53904;DHT22;39812;52.430;16.936;2022-11-11T14:02:17;11.50;99.90
53904;DHT22;39812;52.430;16.936;2022-11-11T14:13:33;11.20;99.90
53904;DHT22;39812;52.430;16.936;2022-11-11T14:15:47;11.20;99.90
53904;DHT22;39812;52.430;16.936;2022-11-11T14:20:50;11.10;99.90
53904;DHT22;39812;52.430;16.936;2022-11-11T14:23:35;11.00;99.90
53904;DHT22;39812;52.430;16.936;2022-11-11T14:28:33;11.00;99.90
53904;DHT22;39812;52.430;16.936;2022-11-11T14:34:13;10.90;99.90
53904;DHT22;39812;52.430;16.936;2022-11-11T14:36:48;10.80;99.90
53904;DHT22;39812;52.430;16.936;2022-11-11T14:39:46;10.70;99.90
53904;DHT22;39812;52.430;16.936;2022-11-11T14:45:02;10.60;99.90
53904;DHT22;39812;52.430;16.936;2022-11-11T14:47:36;10.60;99.90
53904;DHT22;39812;52.430;16.936;2022-11-11T14:50:02;10.60;99.90
53904;DHT22;39812;52.430;16.936;2022-11-11T14:52:48;10.60;99.90
53904;DHT22;39812;52.430;16.936;2022-11-11T14:55:31;10.50;99.90
53904;DHT22;39812;52.430;16.936;2022-11-11T15:03:35;10.40;99.90
53904;DHT22;39812;52.430;16.936;2022-11-11T15:06:10;10.30;99.90
53904;DHT22;39812;52.430;16.936;2022-11-11T15:08:49;10.30;99.90
53904;DHT22;39812;52.430;16.936;2022-11-11T15:14:28;10.20;99.90
53904;DHT22;39812;52.430;16.936;2022-11-11T15:22:22;10.10;99.90
53904;DHT22;39812;52.430;16.936;2022-11-11T15:27:53;10.00;99.90
53904;DHT22;39812;52.430;16.936;2022-11-11T15:30:23;10.00;99.90
53904;DHT22;39812;52.430;16.936;2022-11-11T15:33:20;10.00;99.90
53904;DHT22;39812;52.430;16.936;2022-11-11T15:36:16;10.00;99.90
53904;DHT22;39812;52.430;16.936;2022-11-11T15:38:42;9.90;99.90
53904;DHT22;39812;52.430;16.936;2022-11-11T15:41:21;9.90;99.90
53904;DHT22;39812;52.430;16.936;2022-11-11T15:43:48;9.80;99.90
53904;DHT22;39812;52.430;16.936;2022-11-11T15:46:24;9.70;99.90
53904;DHT22;39812;52.430;16.936;2022-11-11T15:48:51;9.70;99.90
53904;DHT22;39812;52.430;16.936;2022-11-11T15:51:28;9.70;99.90
53904;DHT22;39812;52.430;16.936;2022-11-11T15:54:30;9.70;99.90
53904;DHT22;39812;52.430;16.936;2022-11-11T15:56:53;9.70;99.90
53904;DHT22;39812;52.430;16.936;2022-11-11T15:59:30;9.60;99.90
53904;DHT22;39812;52.430;16.936;2022-11-11T16:02:13;9.60;99.90
53904;DHT22;39812;52.430;16.936;2022-11-11T16:04:51;9.50;99.90
53904;DHT22;39812;52.430;16.936;2022-11-11T16:07:23;9.60;99.90
53904;DHT22;39812;52.430;16.936;2022-11-11T16:09:49;9.50;99.90
53904;DHT22;39812;52.430;16.936;2022-11-11T16:12:21;9.50;99.90
53904;DHT22;39812;52.430;16.936;2022-11-11T16:14:52;9.50;99.90
53904;DHT22;39812;52.430;16.936;2022-11-11T16:17:18;9.50;99.90
53904;DHT22;39812;52.430;16.936;2022-11-11T16:19:45;9.50;99.90
53904;DHT22;39812;52.430;16.936;2022-11-11T16:22:20;9.50;99.90
53904;DHT22;39812;52.430;16.936;2022-11-11T16:24:48;9.40;99.90
53904;DHT22;39812;52.430;16.936;2022-11-11T16:27:19;9.40;99.90
53904;DHT22;39812;52.430;16.936;2022-11-11T16:29:46;9.40;99.90
53904;DHT22;39812;52.430;16.936;2022-11-11T16:34:47;9.40;99.90
53904;DHT22;39812;52.430;16.936;2022-11-11T16:37:14;9.40;99.90
53904;DHT22;39812;52.430;16.936;2022-11-11T16:39:41;9.30;99.90
53904;DHT22;39812;52.430;16.936;2022-11-11T16:42:23;9.40;99.90
53904;DHT22;39812;52.430;16.936;2022-11-11T16:52:28;9.30;99.90
53904;DHT22;39812;52.430;16.936;2022-11-11T16:54:57;9.20;99.90
53904;DHT22;39812;52.430;16.936;2022-11-11T16:57:29;9.20;99.90
53904;DHT22;39812;52.430;16.936;2022-11-11T17:00:00;9.20;99.90
53904;DHT22;39812;52.430;16.936;2022-11-11T17:02:26;9.20;99.90
53904;DHT22;39812;52.430;16.936;2022-11-11T17:04:54;9.10;99.90
53904;DHT22;39812;52.430;16.936;2022-11-11T17:07:35;9.10;99.90
53904;DHT22;39812;52.430;16.936;2022-11-11T17:12:33;9.10;99.90
53904;DHT22;39812;52.430;16.936;2022-11-11T17:14:59;9.10;99.90
53904;DHT22;39812;52.430;16.936;2022-11-11T17:17:26;9.10;99.90
53904;DHT22;39812;52.430;16.936;2022-11-11T17:19:59;9.00;99.90
53904;DHT22;39812;52.430;16.936;2022-11-11T17:22:25;9.00;99.90
53904;DHT22;39812;52.430;16.936;2022-11-11T17:24:50;9.00;99.90
53904;DHT22;39812;52.430;16.936;2022-11-11T17:27:16;9.00;99.90
53904;DHT22;39812;52.430;16.936;2022-11-11T17:29:41;9.00;99.90
53904;DHT22;39812;52.430;16.936;2022-11-11T17:32:07;9.00;99.90
53904;DHT22;39812;52.430;16.936;2022-11-11T17:34:32;8.90;99.90
53904;DHT22;39812;52.430;16.936;2022-11-11T17:36:58;9.00;99.90
53904;DHT22;39812;52.430;16.936;2022-11-11T17:39:23;9.00;99.90
53904;DHT22;39812;52.430;16.936;2022-11-11T17:41:49;8.90;99.90
53904;DHT22;39812;52.430;16.936;2022-11-11T17:44:14;9.00;99.90